sensor_id;sensor_type;location;lat;lon;timestamp;P1;durP1;ratioP1;P2;durP2;ratioP2
30888;SDS011;51092;50.874;7.024;2023-03-01T00:00:35;20.27;;;9.32;;
30888;SDS011;51092;50.874;7.024;2023-03-01T00:01:37;16.77;;;10.38;;
30888;SDS011;51092;50.874;7.024;2023-03-01T00:02:39;12.68;;;10.38;;
30888;SDS011;51092;50.874;7.024;2023-03-01T00:03:42;18.10;;;13.05;;
30888;SDS011;51092;50.874;7.024;2023-03-01T00:04:43;15.38;;;10.80;;
30888;SDS011;51092;50.874;7.024;2023-03-01T00:05:45;16.98;;;10.48;;
30888;SDS011;51092;50.874;7.024;2023-03-01T00:06:47;17.05;;;11.10;;
30888;SDS011;51092;50.874;7.024;2023-03-01T00:07:51;16.80;;;12.07;;
30888;SDS011;51092;50.874;7.024;2023-03-01T00:08:53;15.50;;;10.18;;
30888;SDS011;51092;50.874;7.024;2023-03-01T00:09:55;13.02;;;9.57;;
30888;SDS011;51092;50.874;7.024;2023-03-01T00:11:02;13.88;;;9.70;;
30888;SDS011;51092;50.874;7.024;2023-03-01T00:12:06;12.55;;;9.05;;
30888;SDS011;51092;50.874;7.024;2023-03-01T00:13:08;13.02;;;8.88;;
30888;SDS011;51092;50.874;7.024;2023-03-01T00:14:11;14.82;;;10.10;;
30888;SDS011;51092;50.874;7.024;2023-03-01T00:15:12;17.83;;;10.23;;
30888;SDS011;51092;50.874;7.024;2023-03-01T00:16:17;15.55;;;9.48;;
30888;SDS011;51092;50.874;7.024;2023-03-01T00:17:22;12.43;;;8.85;;
30888;SDS011;51092;50.874;7.024;2023-03-01T00:18:25;11.20;;;8.77;;
30888;SDS011;51092;50.874;7.024;2023-03-01T00:19:26;15.65;;;9.15;;
30888;SDS011;51092;50.874;7.024;2023-03-01T00:20:29;16.65;;;10.52;;
30888;SDS011;51092;50.874;7.024;2023-03-01T00:21:30;14.02;;;10.07;;
30888;SDS011;51092;50.874;7.024;2023-03-01T00:22:33;14.90;;;9.77;;
30888;SDS011;51092;50.874;7.024;2023-03-01T00:23:35;20.27;;;9.57;;
30888;SDS011;51092;50.874;7.024;2023-03-01T00:24:38;14.35;;;9.40;;
30888;SDS011;51092;50.874;7.024;2023-03-01T00:25:41;13.98;;;9.23;;
30888;SDS011;51092;50.874;7.024;2023-03-01T00:26:42;11.25;;;8.65;;
30888;SDS011;51092;50.874;7.024;2023-03-01T00:27:46;17.55;;;10.27;;
30888;SDS011;51092;50.874;7.024;2023-03-01T00:28:49;14.98;;;9.93;;
30888;SDS011;51092;50.874;7.024;2023-03-01T00:29:52;15.20;;;9.73;;
30888;SDS011;51092;50.874;7.024;2023-03-01T00:30:54;16.17;;;10.18;;
30888;SDS011;51092;50.874;7.024;2023-03-01T00:32:00;13.15;;;9.50;;
30888;SDS011;51092;50.874;7.024;2023-03-01T00:33:01;12.73;;;10.20;;
30888;SDS011;51092;50.874;7.024;2023-03-01T00:34:04;18.60;;;9.88;;
30888;SDS011;51092;50.874;7.024;2023-03-01T00:35:06;14.05;;;9.82;;
30888;SDS011;51092;50.874;7.024;2023-03-01T00:36:10;13.93;;;9.77;;
30888;SDS011;51092;50.874;7.024;2023-03-01T00:37:13;14.32;;;9.13;;
30888;SDS011;51092;50.874;7.024;2023-03-01T00:38:15;16.88;;;10.48;;
30888;SDS011;51092;50.874;7.024;2023-03-01T00:39:17;14.05;;;9.40;;
30888;SDS011;51092;50.874;7.024;2023-03-01T00:40:21;12.45;;;8.07;;
30888;SDS011;51092;50.874;7.024;2023-03-01T00:41:22;14.98;;;9.77;;
30888;SDS011;51092;50.874;7.024;2023-03-01T00:42:27;13.23;;;9.55;;
30888;SDS011;51092;50.874;7.024;2023-03-01T00:43:29;15.75;;;9.35;;
30888;SDS011;51092;50.874;7.024;2023-03-01T00:44:31;13.00;;;9.65;;
30888;SDS011;51092;50.874;7.024;2023-03-01T00:45:38;13.32;;;9.95;;
30888;SDS011;51092;50.874;7.024;2023-03-01T00:46:39;16.48;;;9.52;;
30888;SDS011;51092;50.874;7.024;2023-03-01T00:47:43;14.00;;;9.30;;
30888;SDS011;51092;50.874;7.024;2023-03-01T00:48:45;14.32;;;9.48;;
30888;SDS011;51092;50.874;7.024;2023-03-01T00:49:48;12.50;;;9.05;;
30888;SDS011;51092;50.874;7.024;2023-03-01T00:50:49;11.98;;;8.55;;
30888;SDS011;51092;50.874;7.024;2023-03-01T00:51:52;14.48;;;9.45;;
30888;SDS011;51092;50.874;7.024;2023-03-01T00:52:53;13.82;;;9.85;;
30888;SDS011;51092;50.874;7.024;2023-03-01T00:53:57;13.43;;;9.98;;
30888;SDS011;51092;50.874;7.024;2023-03-01T00:55:01;15.57;;;9.15;;
30888;SDS011;51092;50.874;7.024;2023-03-01T00:56:05;14.95;;;10.00;;
30888;SDS011;51092;50.874;7.024;2023-03-01T00:57:08;14.85;;;9.50;;
30888;SDS011;51092;50.874;7.024;2023-03-01T00:58:10;14.23;;;9.32;;
30888;SDS011;51092;50.874;7.024;2023-03-01T00:59:12;14.02;;;9.70;;
30888;SDS011;51092;50.874;7.024;2023-03-01T01:00:14;13.90;;;10.50;;
30888;SDS011;51092;50.874;7.024;2023-03-01T01:01:17;13.18;;;9.68;;
30888;SDS011;51092;50.874;7.024;2023-03-01T01:02:24;16.52;;;10.32;;
30888;SDS011;51092;50.874;7.024;2023-03-01T01:03:27;12.07;;;10.07;;
30888;SDS011;51092;50.874;7.024;2023-03-01T01:04:30;14.25;;;9.68;;
30888;SDS011;51092;50.874;7.024;2023-03-01T01:05:34;13.52;;;9.48;;
30888;SDS011;51092;50.874;7.024;2023-03-01T01:06:37;15.82;;;10.82;;
30888;SDS011;51092;50.874;7.024;2023-03-01T01:07:40;15.50;;;10.27;;
30888;SDS011;51092;50.874;7.024;2023-03-01T01:08:43;14.00;;;9.63;;
30888;SDS011;51092;50.874;7.024;2023-03-01T01:09:45;14.43;;;9.23;;
30888;SDS011;51092;50.874;7.024;2023-03-01T01:10:48;14.02;;;9.45;;
30888;SDS011;51092;50.874;7.024;2023-03-01T01:11:50;17.33;;;9.43;;
30888;SDS011;51092;50.874;7.024;2023-03-01T01:12:53;16.15;;;9.23;;
30888;SDS011;51092;50.874;7.024;2023-03-01T01:13:54;12.00;;;9.88;;
30888;SDS011;51092;50.874;7.024;2023-03-01T01:14:58;15.40;;;9.68;;
30888;SDS011;51092;50.874;7.024;2023-03-01T01:16:00;16.80;;;9.32;;
30888;SDS011;51092;50.874;7.024;2023-03-01T01:17:02;14.75;;;9.63;;
30888;SDS011;51092;50.874;7.024;2023-03-01T01:18:05;12.75;;;9.60;;
30888;SDS011;51092;50.874;7.024;2023-03-01T01:19:09;18.30;;;10.27;;
30888;SDS011;51092;50.874;7.024;2023-03-01T01:20:11;15.63;;;10.02;;
30888;SDS011;51092;50.874;7.024;2023-03-01T01:21:16;17.17;;;10.45;;
30888;SDS011;51092;50.874;7.024;2023-03-01T01:22:19;12.60;;;9.35;;
30888;SDS011;51092;50.874;7.024;2023-03-01T01:23:21;14.30;;;9.93;;
30888;SDS011;51092;50.874;7.024;2023-03-01T01:24:23;14.30;;;9.45;;
30888;SDS011;51092;50.874;7.024;2023-03-01T01:25:25;17.13;;;9.52;;
30888;SDS011;51092;50.874;7.024;2023-03-01T01:26:28;14.50;;;10.20;;
30888;SDS011;51092;50.874;7.024;2023-03-01T01:27:31;12.50;;;9.57;;
30888;SDS011;51092;50.874;7.024;2023-03-01T01:28:33;14.52;;;10.02;;
30888;SDS011;51092;50.874;7.024;2023-03-01T01:29:36;15.75;;;10.60;;
30888;SDS011;51092;50.874;7.024;2023-03-01T01:30:38;14.50;;;10.50;;
30888;SDS011;51092;50.874;7.024;2023-03-01T01:31:41;16.63;;;10.52;;
30888;SDS011;51092;50.874;7.024;2023-03-01T01:32:43;16.50;;;10.05;;
30888;SDS011;51092;50.874;7.024;2023-03-01T01:33:46;13.95;;;9.57;;
30888;SDS011;51092;50.874;7.024;2023-03-01T01:34:50;16.25;;;10.15;;
30888;SDS011;51092;50.874;7.024;2023-03-01T01:35:53;13.98;;;9.85;;
30888;SDS011;51092;50.874;7.024;2023-03-01T01:36:55;19.27;;;10.20;;
30888;SDS011;51092;50.874;7.024;2023-03-01T01:37:57;15.00;;;10.07;;
30888;SDS011;51092;50.874;7.024;2023-03-01T01:38:59;13.15;;;10.57;;
30888;SDS011;51092;50.874;7.024;2023-03-01T01:40:03;21.42;;;10.73;;
30888;SDS011;51092;50.874;7.024;2023-03-01T01:41:05;14.85;;;10.85;;
30888;SDS011;51092;50.874;7.024;2023-03-01T01:42:09;15.18;;;11.40;;
30888;SDS011;51092;50.874;7.024;2023-03-01T01:43:17;13.70;;;10.60;;
30888;SDS011;51092;50.874;7.024;2023-03-01T01:44:22;18.63;;;10.75;;
30888;SDS011;51092;50.874;7.024;2023-03-01T01:45:30;13.52;;;9.23;;
30888;SDS011;51092;50.874;7.024;2023-03-01T01:46:35;13.98;;;10.25;;
30888;SDS011;51092;50.874;7.024;2023-03-01T01:47:39;17.13;;;11.75;;
30888;SDS011;51092;50.874;7.024;2023-03-01T01:48:43;19.95;;;10.15;;
30888;SDS011;51092;50.874;7.024;2023-03-01T01:49:50;14.13;;;10.60;;
30888;SDS011;51092;50.874;7.024;2023-03-01T01:50:56;12.85;;;9.88;;
30888;SDS011;51092;50.874;7.024;2023-03-01T01:52:03;13.23;;;10.43;;
30888;SDS011;51092;50.874;7.024;2023-03-01T01:53:11;15.10;;;10.18;;
30888;SDS011;51092;50.874;7.024;2023-03-01T01:54:18;12.68;;;9.27;;
30888;SDS011;51092;50.874;7.024;2023-03-01T01:55:26;12.70;;;9.68;;
30888;SDS011;51092;50.874;7.024;2023-03-01T01:56:28;13.32;;;10.02;;
30888;SDS011;51092;50.874;7.024;2023-03-01T01:57:32;13.50;;;9.75;;
30888;SDS011;51092;50.874;7.024;2023-03-01T01:58:36;13.00;;;9.60;;
30888;SDS011;51092;50.874;7.024;2023-03-01T01:59:39;13.65;;;9.55;;
30888;SDS011;51092;50.874;7.024;2023-03-01T02:00:45;15.82;;;10.38;;
30888;SDS011;51092;50.874;7.024;2023-03-01T02:01:49;11.18;;;9.43;;
30888;SDS011;51092;50.874;7.024;2023-03-01T02:02:51;14.65;;;9.27;;
30888;SDS011;51092;50.874;7.024;2023-03-01T02:03:58;16.85;;;10.88;;
30888;SDS011;51092;50.874;7.024;2023-03-01T02:05:03;17.13;;;9.70;;
30888;SDS011;51092;50.874;7.024;2023-03-01T02:06:12;13.93;;;10.50;;
30888;SDS011;51092;50.874;7.024;2023-03-01T02:07:19;15.15;;;9.75;;
30888;SDS011;51092;50.874;7.024;2023-03-01T02:08:25;13.52;;;9.65;;
30888;SDS011;51092;50.874;7.024;2023-03-01T02:09:31;14.55;;;9.85;;
30888;SDS011;51092;50.874;7.024;2023-03-01T02:10:35;13.32;;;9.52;;
30888;SDS011;51092;50.874;7.024;2023-03-01T02:11:37;12.93;;;10.43;;
30888;SDS011;51092;50.874;7.024;2023-03-01T02:12:40;12.35;;;9.82;;
30888;SDS011;51092;50.874;7.024;2023-03-01T02:13:42;14.30;;;9.45;;
30888;SDS011;51092;50.874;7.024;2023-03-01T02:14:45;13.20;;;9.43;;
30888;SDS011;51092;50.874;7.024;2023-03-01T02:15:46;14.32;;;9.68;;
30888;SDS011;51092;50.874;7.024;2023-03-01T02:16:49;11.52;;;8.90;;
30888;SDS011;51092;50.874;7.024;2023-03-01T02:17:51;12.02;;;9.10;;
30888;SDS011;51092;50.874;7.024;2023-03-01T02:18:54;13.63;;;9.63;;
30888;SDS011;51092;50.874;7.024;2023-03-01T02:19:59;13.85;;;9.13;;
30888;SDS011;51092;50.874;7.024;2023-03-01T02:21:17;17.10;;;9.57;;
30888;SDS011;51092;50.874;7.024;2023-03-01T02:22:31;13.75;;;9.18;;
30888;SDS011;51092;50.874;7.024;2023-03-01T02:23:35;14.45;;;9.23;;
30888;SDS011;51092;50.874;7.024;2023-03-01T02:24:38;11.38;;;8.13;;
30888;SDS011;51092;50.874;7.024;2023-03-01T02:25:51;16.73;;;9.88;;
30888;SDS011;51092;50.874;7.024;2023-03-01T02:26:56;14.77;;;9.35;;
30888;SDS011;51092;50.874;7.024;2023-03-01T02:28:03;11.43;;;8.32;;
30888;SDS011;51092;50.874;7.024;2023-03-01T02:29:12;12.25;;;8.98;;
30888;SDS011;51092;50.874;7.024;2023-03-01T02:30:14;13.50;;;10.45;;
30888;SDS011;51092;50.874;7.024;2023-03-01T02:31:17;13.55;;;9.00;;
30888;SDS011;51092;50.874;7.024;2023-03-01T02:32:38;14.40;;;9.80;;
30888;SDS011;51092;50.874;7.024;2023-03-01T02:33:41;23.58;;;10.30;;
30888;SDS011;51092;50.874;7.024;2023-03-01T02:34:44;14.02;;;10.07;;
30888;SDS011;51092;50.874;7.024;2023-03-01T02:35:47;12.27;;;10.15;;
30888;SDS011;51092;50.874;7.024;2023-03-01T02:36:49;11.93;;;9.70;;
30888;SDS011;51092;50.874;7.024;2023-03-01T02:37:56;15.13;;;10.23;;
30888;SDS011;51092;50.874;7.024;2023-03-01T02:39:03;15.20;;;9.65;;
30888;SDS011;51092;50.874;7.024;2023-03-01T02:40:08;18.30;;;10.50;;
30888;SDS011;51092;50.874;7.024;2023-03-01T02:41:15;13.88;;;10.07;;
30888;SDS011;51092;50.874;7.024;2023-03-01T02:42:21;19.55;;;11.45;;
30888;SDS011;51092;50.874;7.024;2023-03-01T02:43:31;14.93;;;10.52;;
30888;SDS011;51092;50.874;7.024;2023-03-01T02:44:36;17.45;;;10.48;;
30888;SDS011;51092;50.874;7.024;2023-03-01T02:45:38;33.85;;;16.33;;
30888;SDS011;51092;50.874;7.024;2023-03-01T02:46:50;17.17;;;11.57;;
30888;SDS011;51092;50.874;7.024;2023-03-01T02:47:53;15.45;;;10.52;;
30888;SDS011;51092;50.874;7.024;2023-03-01T02:48:59;14.93;;;9.88;;
30888;SDS011;51092;50.874;7.024;2023-03-01T02:50:01;14.48;;;10.13;;
30888;SDS011;51092;50.874;7.024;2023-03-01T02:51:04;13.18;;;10.18;;
30888;SDS011;51092;50.874;7.024;2023-03-01T02:52:14;14.60;;;9.45;;
30888;SDS011;51092;50.874;7.024;2023-03-01T02:53:27;19.45;;;11.27;;
30888;SDS011;51092;50.874;7.024;2023-03-01T02:54:36;15.88;;;9.88;;
30888;SDS011;51092;50.874;7.024;2023-03-01T02:55:43;17.23;;;10.30;;
30888;SDS011;51092;50.874;7.024;2023-03-01T02:56:45;14.38;;;10.20;;
30888;SDS011;51092;50.874;7.024;2023-03-01T02:57:48;15.05;;;10.20;;
30888;SDS011;51092;50.874;7.024;2023-03-01T02:58:51;15.82;;;10.50;;
30888;SDS011;51092;50.874;7.024;2023-03-01T02:59:55;15.20;;;10.05;;
30888;SDS011;51092;50.874;7.024;2023-03-01T03:01:00;13.80;;;10.57;;
30888;SDS011;51092;50.874;7.024;2023-03-01T03:02:02;13.55;;;9.95;;
30888;SDS011;51092;50.874;7.024;2023-03-01T03:03:04;19.02;;;10.15;;
30888;SDS011;51092;50.874;7.024;2023-03-01T03:04:08;17.45;;;11.18;;
30888;SDS011;51092;50.874;7.024;2023-03-01T03:05:12;16.35;;;11.93;;
30888;SDS011;51092;50.874;7.024;2023-03-01T03:06:16;16.23;;;10.15;;
30888;SDS011;51092;50.874;7.024;2023-03-01T03:07:17;14.07;;;10.27;;
30888;SDS011;51092;50.874;7.024;2023-03-01T03:08:20;19.17;;;10.82;;
30888;SDS011;51092;50.874;7.024;2023-03-01T03:09:24;15.70;;;11.82;;
30888;SDS011;51092;50.874;7.024;2023-03-01T03:10:27;15.75;;;11.38;;
30888;SDS011;51092;50.874;7.024;2023-03-01T03:11:31;16.00;;;11.38;;
30888;SDS011;51092;50.874;7.024;2023-03-01T03:12:33;16.58;;;10.68;;
30888;SDS011;51092;50.874;7.024;2023-03-01T03:13:35;17.60;;;11.68;;
30888;SDS011;51092;50.874;7.024;2023-03-01T03:14:37;17.20;;;10.98;;
30888;SDS011;51092;50.874;7.024;2023-03-01T03:15:41;13.45;;;9.98;;
30888;SDS011;51092;50.874;7.024;2023-03-01T03:16:45;13.82;;;9.95;;
30888;SDS011;51092;50.874;7.024;2023-03-01T03:17:48;15.50;;;10.07;;
30888;SDS011;51092;50.874;7.024;2023-03-01T03:18:52;15.13;;;9.65;;
30888;SDS011;51092;50.874;7.024;2023-03-01T03:19:53;14.20;;;10.43;;
30888;SDS011;51092;50.874;7.024;2023-03-01T03:20:56;13.90;;;9.88;;
30888;SDS011;51092;50.874;7.024;2023-03-01T03:21:57;17.30;;;8.93;;
30888;SDS011;51092;50.874;7.024;2023-03-01T03:23:02;15.57;;;11.07;;
30888;SDS011;51092;50.874;7.024;2023-03-01T03:24:04;15.07;;;10.68;;
30888;SDS011;51092;50.874;7.024;2023-03-01T03:25:06;13.45;;;10.20;;
30888;SDS011;51092;50.874;7.024;2023-03-01T03:26:10;13.15;;;10.10;;
30888;SDS011;51092;50.874;7.024;2023-03-01T03:27:15;14.20;;;10.23;;
30888;SDS011;51092;50.874;7.024;2023-03-01T03:28:16;17.48;;;10.82;;
30888;SDS011;51092;50.874;7.024;2023-03-01T03:29:19;15.73;;;9.90;;
30888;SDS011;51092;50.874;7.024;2023-03-01T03:30:20;15.45;;;11.15;;
30888;SDS011;51092;50.874;7.024;2023-03-01T03:31:24;16.25;;;11.20;;
30888;SDS011;51092;50.874;7.024;2023-03-01T03:32:26;17.90;;;11.27;;
30888;SDS011;51092;50.874;7.024;2023-03-01T03:33:28;15.32;;;10.93;;
30888;SDS011;51092;50.874;7.024;2023-03-01T03:34:30;14.57;;;11.10;;
30888;SDS011;51092;50.874;7.024;2023-03-01T03:35:33;17.55;;;11.27;;
30888;SDS011;51092;50.874;7.024;2023-03-01T03:36:39;22.60;;;12.27;;
30888;SDS011;51092;50.874;7.024;2023-03-01T03:37:41;14.13;;;9.32;;
30888;SDS011;51092;50.874;7.024;2023-03-01T03:39:00;15.52;;;10.48;;
30888;SDS011;51092;50.874;7.024;2023-03-01T03:40:03;15.48;;;10.30;;
30888;SDS011;51092;50.874;7.024;2023-03-01T03:41:15;17.20;;;10.48;;
30888;SDS011;51092;50.874;7.024;2023-03-01T03:42:18;16.77;;;12.00;;
30888;SDS011;51092;50.874;7.024;2023-03-01T03:43:20;15.60;;;11.57;;
30888;SDS011;51092;50.874;7.024;2023-03-01T03:44:23;21.70;;;13.35;;
30888;SDS011;51092;50.874;7.024;2023-03-01T03:45:25;17.85;;;11.90;;
30888;SDS011;51092;50.874;7.024;2023-03-01T03:46:29;14.52;;;11.07;;
30888;SDS011;51092;50.874;7.024;2023-03-01T03:47:31;17.33;;;11.63;;
30888;SDS011;51092;50.874;7.024;2023-03-01T03:48:33;18.95;;;12.90;;
30888;SDS011;51092;50.874;7.024;2023-03-01T03:49:36;17.38;;;12.20;;
30888;SDS011;51092;50.874;7.024;2023-03-01T03:50:38;18.05;;;12.82;;
30888;SDS011;51092;50.874;7.024;2023-03-01T03:51:41;18.17;;;11.90;;
30888;SDS011;51092;50.874;7.024;2023-03-01T03:52:43;17.17;;;11.57;;
30888;SDS011;51092;50.874;7.024;2023-03-01T03:53:45;18.95;;;12.93;;
30888;SDS011;51092;50.874;7.024;2023-03-01T03:54:48;17.92;;;12.07;;
30888;SDS011;51092;50.874;7.024;2023-03-01T03:55:52;20.23;;;12.35;;
30888;SDS011;51092;50.874;7.024;2023-03-01T03:56:55;20.83;;;13.43;;
30888;SDS011;51092;50.874;7.024;2023-03-01T03:57:57;20.52;;;12.88;;
30888;SDS011;51092;50.874;7.024;2023-03-01T03:59:03;18.05;;;11.93;;
30888;SDS011;51092;50.874;7.024;2023-03-01T04:00:08;23.02;;;13.93;;
30888;SDS011;51092;50.874;7.024;2023-03-01T04:01:12;15.85;;;11.88;;
30888;SDS011;51092;50.874;7.024;2023-03-01T04:02:16;15.40;;;12.02;;
30888;SDS011;51092;50.874;7.024;2023-03-01T04:03:22;20.77;;;13.18;;
30888;SDS011;51092;50.874;7.024;2023-03-01T04:04:25;22.52;;;12.60;;
30888;SDS011;51092;50.874;7.024;2023-03-01T04:05:27;18.10;;;13.27;;
30888;SDS011;51092;50.874;7.024;2023-03-01T04:06:33;22.70;;;13.35;;
30888;SDS011;51092;50.874;7.024;2023-03-01T04:07:34;19.63;;;13.40;;
30888;SDS011;51092;50.874;7.024;2023-03-01T04:08:37;25.38;;;15.10;;
30888;SDS011;51092;50.874;7.024;2023-03-01T04:09:42;23.20;;;13.68;;
30888;SDS011;51092;50.874;7.024;2023-03-01T04:10:46;21.27;;;14.68;;
30888;SDS011;51092;50.874;7.024;2023-03-01T04:11:49;21.23;;;13.50;;
30888;SDS011;51092;50.874;7.024;2023-03-01T04:12:51;19.17;;;13.10;;
30888;SDS011;51092;50.874;7.024;2023-03-01T04:13:54;19.17;;;11.98;;
30888;SDS011;51092;50.874;7.024;2023-03-01T04:14:58;21.35;;;12.05;;
30888;SDS011;51092;50.874;7.024;2023-03-01T04:15:59;22.35;;;13.68;;
30888;SDS011;51092;50.874;7.024;2023-03-01T04:17:02;23.30;;;14.57;;
30888;SDS011;51092;50.874;7.024;2023-03-01T04:18:08;21.70;;;12.80;;
30888;SDS011;51092;50.874;7.024;2023-03-01T04:19:11;24.35;;;13.98;;
30888;SDS011;51092;50.874;7.024;2023-03-01T04:20:13;20.52;;;13.70;;
30888;SDS011;51092;50.874;7.024;2023-03-01T04:21:19;23.67;;;14.25;;
30888;SDS011;51092;50.874;7.024;2023-03-01T04:22:21;17.70;;;12.02;;
30888;SDS011;51092;50.874;7.024;2023-03-01T04:23:30;21.45;;;14.10;;
30888;SDS011;51092;50.874;7.024;2023-03-01T04:24:31;21.85;;;13.35;;
30888;SDS011;51092;50.874;7.024;2023-03-01T04:25:34;19.70;;;14.50;;
30888;SDS011;51092;50.874;7.024;2023-03-01T04:26:35;19.77;;;13.05;;
30888;SDS011;51092;50.874;7.024;2023-03-01T04:27:38;19.17;;;13.60;;
30888;SDS011;51092;50.874;7.024;2023-03-01T04:28:41;20.42;;;12.55;;
30888;SDS011;51092;50.874;7.024;2023-03-01T04:29:45;18.88;;;13.23;;
30888;SDS011;51092;50.874;7.024;2023-03-01T04:30:47;22.17;;;12.77;;
30888;SDS011;51092;50.874;7.024;2023-03-01T04:31:49;20.33;;;13.05;;
30888;SDS011;51092;50.874;7.024;2023-03-01T04:32:51;21.83;;;13.30;;
30888;SDS011;51092;50.874;7.024;2023-03-01T04:33:55;20.80;;;13.05;;
30888;SDS011;51092;50.874;7.024;2023-03-01T04:34:57;19.15;;;12.82;;
30888;SDS011;51092;50.874;7.024;2023-03-01T04:35:59;19.83;;;13.55;;
30888;SDS011;51092;50.874;7.024;2023-03-01T04:37:05;19.35;;;13.18;;
30888;SDS011;51092;50.874;7.024;2023-03-01T04:38:07;22.55;;;14.27;;
30888;SDS011;51092;50.874;7.024;2023-03-01T04:39:09;21.00;;;14.50;;
30888;SDS011;51092;50.874;7.024;2023-03-01T04:40:12;17.63;;;12.82;;
30888;SDS011;51092;50.874;7.024;2023-03-01T04:41:17;19.90;;;12.45;;
30888;SDS011;51092;50.874;7.024;2023-03-01T04:42:19;23.48;;;15.35;;
30888;SDS011;51092;50.874;7.024;2023-03-01T04:43:21;24.45;;;15.30;;
30888;SDS011;51092;50.874;7.024;2023-03-01T04:44:23;20.38;;;15.60;;
30888;SDS011;51092;50.874;7.024;2023-03-01T04:45:25;23.42;;;12.95;;
30888;SDS011;51092;50.874;7.024;2023-03-01T04:46:28;23.08;;;15.40;;
30888;SDS011;51092;50.874;7.024;2023-03-01T04:47:31;20.77;;;14.50;;
30888;SDS011;51092;50.874;7.024;2023-03-01T04:48:32;24.35;;;16.40;;
30888;SDS011;51092;50.874;7.024;2023-03-01T04:49:37;25.30;;;14.77;;
30888;SDS011;51092;50.874;7.024;2023-03-01T04:50:39;25.77;;;15.63;;
30888;SDS011;51092;50.874;7.024;2023-03-01T04:51:41;22.67;;;15.55;;
30888;SDS011;51092;50.874;7.024;2023-03-01T04:52:43;23.48;;;15.38;;
30888;SDS011;51092;50.874;7.024;2023-03-01T04:53:46;22.10;;;13.70;;
30888;SDS011;51092;50.874;7.024;2023-03-01T04:54:48;20.38;;;12.70;;
30888;SDS011;51092;50.874;7.024;2023-03-01T04:55:50;21.50;;;14.43;;
30888;SDS011;51092;50.874;7.024;2023-03-01T04:56:52;24.40;;;15.07;;
30888;SDS011;51092;50.874;7.024;2023-03-01T04:57:54;19.58;;;14.05;;
30888;SDS011;51092;50.874;7.024;2023-03-01T04:58:56;22.95;;;13.52;;
30888;SDS011;51092;50.874;7.024;2023-03-01T04:59:58;18.33;;;12.65;;
30888;SDS011;51092;50.874;7.024;2023-03-01T05:01:00;20.00;;;13.15;;
30888;SDS011;51092;50.874;7.024;2023-03-01T05:02:02;19.55;;;13.60;;
30888;SDS011;51092;50.874;7.024;2023-03-01T05:03:04;17.88;;;12.75;;
30888;SDS011;51092;50.874;7.024;2023-03-01T05:04:06;21.00;;;13.73;;
30888;SDS011;51092;50.874;7.024;2023-03-01T05:05:16;17.10;;;12.70;;
30888;SDS011;51092;50.874;7.024;2023-03-01T05:06:19;20.60;;;13.80;;
30888;SDS011;51092;50.874;7.024;2023-03-01T05:07:22;19.77;;;13.82;;
30888;SDS011;51092;50.874;7.024;2023-03-01T05:08:25;19.35;;;13.32;;
30888;SDS011;51092;50.874;7.024;2023-03-01T05:09:27;20.42;;;14.10;;
30888;SDS011;51092;50.874;7.024;2023-03-01T05:10:29;19.98;;;14.60;;
30888;SDS011;51092;50.874;7.024;2023-03-01T05:11:33;20.15;;;14.05;;
30888;SDS011;51092;50.874;7.024;2023-03-01T05:12:36;26.45;;;14.65;;
30888;SDS011;51092;50.874;7.024;2023-03-01T05:13:39;24.33;;;15.23;;
30888;SDS011;51092;50.874;7.024;2023-03-01T05:14:41;19.27;;;13.93;;
30888;SDS011;51092;50.874;7.024;2023-03-01T05:15:45;25.42;;;13.75;;
30888;SDS011;51092;50.874;7.024;2023-03-01T05:16:48;18.42;;;13.63;;
30888;SDS011;51092;50.874;7.024;2023-03-01T05:17:50;23.98;;;14.93;;
30888;SDS011;51092;50.874;7.024;2023-03-01T05:18:52;21.25;;;14.63;;
30888;SDS011;51092;50.874;7.024;2023-03-01T05:19:56;17.98;;;13.43;;
30888;SDS011;51092;50.874;7.024;2023-03-01T05:21:03;26.13;;;15.95;;
30888;SDS011;51092;50.874;7.024;2023-03-01T05:22:08;24.35;;;13.35;;
30888;SDS011;51092;50.874;7.024;2023-03-01T05:23:09;24.50;;;14.00;;
30888;SDS011;51092;50.874;7.024;2023-03-01T05:24:12;19.63;;;14.63;;
30888;SDS011;51092;50.874;7.024;2023-03-01T05:25:13;19.13;;;14.05;;
30888;SDS011;51092;50.874;7.024;2023-03-01T05:26:17;19.13;;;13.60;;
30888;SDS011;51092;50.874;7.024;2023-03-01T05:27:34;24.13;;;15.07;;
30888;SDS011;51092;50.874;7.024;2023-03-01T05:28:37;22.88;;;14.45;;
30888;SDS011;51092;50.874;7.024;2023-03-01T05:29:39;19.20;;;14.02;;
30888;SDS011;51092;50.874;7.024;2023-03-01T05:30:41;20.20;;;13.70;;
30888;SDS011;51092;50.874;7.024;2023-03-01T05:31:44;20.58;;;13.98;;
30888;SDS011;51092;50.874;7.024;2023-03-01T05:32:47;19.85;;;13.32;;
30888;SDS011;51092;50.874;7.024;2023-03-01T05:33:50;21.60;;;15.70;;
30888;SDS011;51092;50.874;7.024;2023-03-01T05:34:53;20.95;;;13.30;;
30888;SDS011;51092;50.874;7.024;2023-03-01T05:35:59;21.80;;;13.43;;
30888;SDS011;51092;50.874;7.024;2023-03-01T05:37:03;26.27;;;14.90;;
30888;SDS011;51092;50.874;7.024;2023-03-01T05:38:05;21.80;;;15.23;;
30888;SDS011;51092;50.874;7.024;2023-03-01T05:39:10;22.27;;;14.77;;
30888;SDS011;51092;50.874;7.024;2023-03-01T05:40:12;19.58;;;13.75;;
30888;SDS011;51092;50.874;7.024;2023-03-01T05:41:17;19.65;;;14.13;;
30888;SDS011;51092;50.874;7.024;2023-03-01T05:42:18;19.27;;;13.82;;
30888;SDS011;51092;50.874;7.024;2023-03-01T05:43:21;22.02;;;13.38;;
30888;SDS011;51092;50.874;7.024;2023-03-01T05:44:22;23.13;;;14.00;;
30888;SDS011;51092;50.874;7.024;2023-03-01T05:45:26;16.73;;;13.20;;
30888;SDS011;51092;50.874;7.024;2023-03-01T05:46:28;18.73;;;14.82;;
30888;SDS011;51092;50.874;7.024;2023-03-01T05:47:30;21.40;;;13.63;;
30888;SDS011;51092;50.874;7.024;2023-03-01T05:48:33;20.17;;;15.35;;
30888;SDS011;51092;50.874;7.024;2023-03-01T05:49:36;17.90;;;12.90;;
30888;SDS011;51092;50.874;7.024;2023-03-01T05:50:38;20.95;;;13.40;;
30888;SDS011;51092;50.874;7.024;2023-03-01T05:51:42;28.77;;;15.60;;
30888;SDS011;51092;50.874;7.024;2023-03-01T05:52:49;21.67;;;13.95;;
30888;SDS011;51092;50.874;7.024;2023-03-01T05:53:55;17.35;;;12.30;;
30888;SDS011;51092;50.874;7.024;2023-03-01T05:54:56;22.98;;;13.40;;
30888;SDS011;51092;50.874;7.024;2023-03-01T05:55:59;21.30;;;13.88;;
30888;SDS011;51092;50.874;7.024;2023-03-01T05:57:04;18.58;;;13.40;;
30888;SDS011;51092;50.874;7.024;2023-03-01T05:58:06;18.35;;;12.68;;
30888;SDS011;51092;50.874;7.024;2023-03-01T05:59:10;20.80;;;12.38;;
30888;SDS011;51092;50.874;7.024;2023-03-01T06:00:13;20.00;;;13.45;;
30888;SDS011;51092;50.874;7.024;2023-03-01T06:01:16;24.75;;;15.75;;
30888;SDS011;51092;50.874;7.024;2023-03-01T06:02:18;20.88;;;12.77;;
30888;SDS011;51092;50.874;7.024;2023-03-01T06:03:20;22.42;;;15.68;;
30888;SDS011;51092;50.874;7.024;2023-03-01T06:04:22;27.75;;;17.52;;
30888;SDS011;51092;50.874;7.024;2023-03-01T06:05:25;24.42;;;16.75;;
30888;SDS011;51092;50.874;7.024;2023-03-01T06:06:28;24.83;;;16.33;;
30888;SDS011;51092;50.874;7.024;2023-03-01T06:07:31;26.48;;;15.98;;
30888;SDS011;51092;50.874;7.024;2023-03-01T06:08:35;27.27;;;16.13;;
30888;SDS011;51092;50.874;7.024;2023-03-01T06:09:37;26.33;;;16.73;;
30888;SDS011;51092;50.874;7.024;2023-03-01T06:10:40;27.83;;;16.77;;
30888;SDS011;51092;50.874;7.024;2023-03-01T06:11:42;32.35;;;19.27;;
30888;SDS011;51092;50.874;7.024;2023-03-01T06:12:44;25.80;;;15.32;;
30888;SDS011;51092;50.874;7.024;2023-03-01T06:13:47;22.17;;;14.50;;